sensor_id;sensor_type;location;lat;lon;timestamp;pressure;altitude;pressure_sealevel;temperature;humidity
55424;BME280;41294;42.666;23.350;2023-03-23T00:02:30;94980.81;;;7.36;100.00
55424;BME280;41294;42.666;23.350;2023-03-23T00:05:05;94979.94;;;7.27;100.00
55424;BME280;41294;42.666;23.350;2023-03-23T00:07:32;94976.38;;;7.21;100.00
55424;BME280;41294;42.666;23.350;2023-03-23T00:09:58;94975.69;;;7.05;100.00
55424;BME280;41294;42.666;23.350;2023-03-23T00:12:26;94975.09;;;7.13;100.00
55424;BME280;41294;42.666;23.350;2023-03-23T00:15:01;94976.91;;;7.00;100.00
55424;BME280;41294;42.666;23.350;2023-03-23T00:17:28;94980.53;;;6.90;100.00
55424;BME280;41294;42.666;23.350;2023-03-23T00:19:54;94981.84;;;6.82;100.00
55424;BME280;41294;42.666;23.350;2023-03-23T00:22:20;94980.22;;;6.88;100.00
55424;BME280;41294;42.666;23.350;2023-03-23T00:24:47;94988.31;;;6.78;100.00
55424;BME280;41294;42.666;23.350;2023-03-23T00:27:13;94975.00;;;6.72;100.00
55424;BME280;41294;42.666;23.350;2023-03-23T00:29:39;94986.22;;;6.73;100.00
55424;BME280;41294;42.666;23.350;2023-03-23T00:32:06;94991.38;;;6.60;100.00
55424;BME280;41294;42.666;23.350;2023-03-23T00:34:37;94984.22;;;6.77;100.00
55424;BME280;41294;42.666;23.350;2023-03-23T00:37:03;94990.69;;;6.72;100.00
55424;BME280;41294;42.666;23.350;2023-03-23T00:39:29;94996.53;;;6.64;100.00
55424;BME280;41294;42.666;23.350;2023-03-23T00:41:55;94995.56;;;6.58;100.00
55424;BME280;41294;42.666;23.350;2023-03-23T00:44:27;94997.41;;;6.57;100.00
55424;BME280;41294;42.666;23.350;2023-03-23T00:46:54;94995.75;;;6.63;100.00
55424;BME280;41294;42.666;23.350;2023-03-23T00:49:22;95005.09;;;6.64;100.00
55424;BME280;41294;42.666;23.350;2023-03-23T00:51:55;95007.53;;;6.71;100.00
55424;BME280;41294;42.666;23.350;2023-03-23T00:54:22;95000.91;;;6.67;100.00
55424;BME280;41294;42.666;23.350;2023-03-23T00:56:47;95009.00;;;6.72;100.00
55424;BME280;41294;42.666;23.350;2023-03-23T00:59:13;95005.91;;;6.77;100.00
55424;BME280;41294;42.666;23.350;2023-03-23T01:01:39;95014.56;;;6.74;100.00
55424;BME280;41294;42.666;23.350;2023-03-23T01:04:05;95005.72;;;6.84;100.00
55424;BME280;41294;42.666;23.350;2023-03-23T01:06:36;95009.22;;;6.94;100.00
55424;BME280;41294;42.666;23.350;2023-03-23T01:09:07;95005.78;;;6.97;100.00
55424;BME280;41294;42.666;23.350;2023-03-23T01:11:32;95002.59;;;7.05;100.00
55424;BME280;41294;42.666;23.350;2023-03-23T01:13:58;95004.28;;;7.12;100.00
55424;BME280;41294;42.666;23.350;2023-03-23T01:16:25;94999.59;;;7.19;100.00
55424;BME280;41294;42.666;23.350;2023-03-23T01:18:51;95001.78;;;7.21;100.00
55424;BME280;41294;42.666;23.350;2023-03-23T01:21:18;94999.41;;;7.26;100.00
55424;BME280;41294;42.666;23.350;2023-03-23T01:23:44;94996.47;;;7.24;100.00
55424;BME280;41294;42.666;23.350;2023-03-23T01:26:16;94989.38;;;7.25;100.00
55424;BME280;41294;42.666;23.350;2023-03-23T01:28:42;94993.47;;;7.26;100.00
55424;BME280;41294;42.666;23.350;2023-03-23T01:31:13;94986.13;;;7.33;100.00
55424;BME280;41294;42.666;23.350;2023-03-23T01:33:40;94988.69;;;7.36;100.00
55424;BME280;41294;42.666;23.350;2023-03-23T01:36:09;94992.25;;;7.42;100.00
55424;BME280;41294;42.666;23.350;2023-03-23T01:38:36;94987.47;;;7.25;100.00
55424;BME280;41294;42.666;23.350;2023-03-23T01:41:02;94980.59;;;7.31;100.00
55424;BME280;41294;42.666;23.350;2023-03-23T01:43:28;94976.84;;;7.32;100.00
55424;BME280;41294;42.666;23.350;2023-03-23T01:45:53;94979.94;;;7.27;100.00
55424;BME280;41294;42.666;23.350;2023-03-23T01:48:28;94976.03;;;7.19;100.00
55424;BME280;41294;42.666;23.350;2023-03-23T01:53:21;94974.25;;;7.16;100.00
55424;BME280;41294;42.666;23.350;2023-03-23T01:55:50;94967.53;;;7.15;100.00
55424;BME280;41294;42.666;23.350;2023-03-23T01:58:21;94961.69;;;7.11;100.00
55424;BME280;41294;42.666;23.350;2023-03-23T02:00:51;94965.88;;;7.09;100.00
55424;BME280;41294;42.666;23.350;2023-03-23T02:03:19;94970.34;;;7.08;100.00
55424;BME280;41294;42.666;23.350;2023-03-23T02:05:45;94962.81;;;7.10;100.00
55424;BME280;41294;42.666;23.350;2023-03-23T02:08:11;94967.47;;;7.19;100.00
55424;BME280;41294;42.666;23.350;2023-03-23T02:10:39;94976.28;;;7.25;100.00
55424;BME280;41294;42.666;23.350;2023-03-23T02:13:07;94975.66;;;7.33;100.00
55424;BME280;41294;42.666;23.350;2023-03-23T02:15:49;94967.91;;;7.30;100.00
55424;BME280;41294;42.666;23.350;2023-03-23T02:18:35;94966.00;;;7.18;100.00
55424;BME280;41294;42.666;23.350;2023-03-23T02:26:22;94962.31;;;7.15;100.00
55424;BME280;41294;42.666;23.350;2023-03-23T02:34:41;94967.44;;;6.90;100.00
55424;BME280;41294;42.666;23.350;2023-03-23T02:37:12;94971.53;;;6.91;100.00
55424;BME280;41294;42.666;23.350;2023-03-23T02:39:52;94977.28;;;6.86;100.00
55424;BME280;41294;42.666;23.350;2023-03-23T02:42:24;94981.75;;;6.86;100.00
55424;BME280;41294;42.666;23.350;2023-03-23T02:44:52;94978.84;;;6.84;100.00
55424;BME280;41294;42.666;23.350;2023-03-23T02:47:25;94977.63;;;6.72;100.00
55424;BME280;41294;42.666;23.350;2023-03-23T02:49:54;94982.06;;;6.59;100.00
55424;BME280;41294;42.666;23.350;2023-03-23T02:52:24;94992.34;;;6.66;100.00
55424;BME280;41294;42.666;23.350;2023-03-23T02:54:51;94997.72;;;6.75;100.00
55424;BME280;41294;42.666;23.350;2023-03-23T02:57:19;94999.94;;;6.77;100.00
55424;BME280;41294;42.666;23.350;2023-03-23T02:59:45;94995.69;;;6.67;100.00
55424;BME280;41294;42.666;23.350;2023-03-23T03:02:26;95000.13;;;6.38;100.00
55424;BME280;41294;42.666;23.350;2023-03-23T03:07:35;95018.44;;;6.03;100.00
55424;BME280;41294;42.666;23.350;2023-03-23T03:10:05;95021.78;;;5.87;100.00
55424;BME280;41294;42.666;23.350;2023-03-23T03:12:46;95026.31;;;5.64;100.00
55424;BME280;41294;42.666;23.350;2023-03-23T03:17:45;95031.53;;;5.83;100.00
55424;BME280;41294;42.666;23.350;2023-03-23T03:20:14;95029.81;;;5.77;100.00
55424;BME280;41294;42.666;23.350;2023-03-23T03:22:41;95024.84;;;5.82;100.00
55424;BME280;41294;42.666;23.350;2023-03-23T03:25:10;95021.34;;;5.89;100.00
55424;BME280;41294;42.666;23.350;2023-03-23T03:27:39;95021.53;;;5.98;100.00
55424;BME280;41294;42.666;23.350;2023-03-23T03:30:08;95026.06;;;6.13;100.00
55424;BME280;41294;42.666;23.350;2023-03-23T03:32:40;95030.00;;;6.37;100.00
55424;BME280;41294;42.666;23.350;2023-03-23T03:35:09;95030.00;;;6.37;100.00
55424;BME280;41294;42.666;23.350;2023-03-23T03:37:36;95035.06;;;6.44;100.00
55424;BME280;41294;42.666;23.350;2023-03-23T03:40:08;95027.06;;;6.51;100.00
55424;BME280;41294;42.666;23.350;2023-03-23T03:42:40;95022.84;;;6.57;100.00
55424;BME280;41294;42.666;23.350;2023-03-23T03:45:11;95026.59;;;6.56;100.00
55424;BME280;41294;42.666;23.350;2023-03-23T03:47:37;95030.44;;;6.67;100.00
55424;BME280;41294;42.666;23.350;2023-03-23T03:50:03;95019.97;;;6.67;100.00
55424;BME280;41294;42.666;23.350;2023-03-23T03:52:29;95026.31;;;6.82;100.00
55424;BME280;41294;42.666;23.350;2023-03-23T03:54:54;95022.22;;;6.81;100.00
55424;BME280;41294;42.666;23.350;2023-03-23T03:57:21;95019.47;;;6.72;100.00
55424;BME280;41294;42.666;23.350;2023-03-23T03:59:46;95019.00;;;6.61;100.00
55424;BME280;41294;42.666;23.350;2023-03-23T04:02:12;95028.63;;;6.64;100.00
55424;BME280;41294;42.666;23.350;2023-03-23T04:04:41;95018.06;;;6.68;100.00
55424;BME280;41294;42.666;23.350;2023-03-23T04:07:08;95022.97;;;6.34;100.00
55424;BME280;41294;42.666;23.350;2023-03-23T04:09:36;95019.31;;;6.48;100.00
55424;BME280;41294;42.666;23.350;2023-03-23T04:12:02;95014.91;;;6.45;100.00
55424;BME280;41294;42.666;23.350;2023-03-23T04:14:28;95012.59;;;6.47;100.00
55424;BME280;41294;42.666;23.350;2023-03-23T04:16:53;95011.38;;;6.51;100.00
55424;BME280;41294;42.666;23.350;2023-03-23T04:19:22;95009.19;;;6.50;100.00
55424;BME280;41294;42.666;23.350;2023-03-23T04:21:48;95016.06;;;6.59;100.00
55424;BME280;41294;42.666;23.350;2023-03-23T04:24:14;95011.47;;;6.63;100.00
55424;BME280;41294;42.666;23.350;2023-03-23T04:26:40;95014.91;;;6.60;100.00
55424;BME280;41294;42.666;23.350;2023-03-23T04:29:07;95019.97;;;6.67;100.00
55424;BME280;41294;42.666;23.350;2023-03-23T04:31:34;95018.31;;;6.73;100.00
55424;BME280;41294;42.666;23.350;2023-03-23T04:34:00;95026.00;;;6.80;100.00
55424;BME280;41294;42.666;23.350;2023-03-23T04:36:27;95022.91;;;6.69;100.00
55424;BME280;41294;42.666;23.350;2023-03-23T04:38:54;95025.44;;;6.73;100.00
55424;BME280;41294;42.666;23.350;2023-03-23T04:41:21;95022.41;;;6.74;100.00
55424;BME280;41294;42.666;23.350;2023-03-23T04:43:48;95024.38;;;6.86;100.00
55424;BME280;41294;42.666;23.350;2023-03-23T04:46:18;95020.47;;;6.78;100.00
55424;BME280;41294;42.666;23.350;2023-03-23T04:48:44;95024.56;;;6.79;100.00
55424;BME280;41294;42.666;23.350;2023-03-23T04:51:10;95030.66;;;6.89;100.00
55424;BME280;41294;42.666;23.350;2023-03-23T04:53:37;95031.31;;;6.77;100.00
55424;BME280;41294;42.666;23.350;2023-03-23T04:58:31;95039.66;;;6.88;100.00
55424;BME280;41294;42.666;23.350;2023-03-23T05:01:00;95043.47;;;6.99;100.00
55424;BME280;41294;42.666;23.350;2023-03-23T05:03:26;95038.75;;;6.94;100.00
55424;BME280;41294;42.666;23.350;2023-03-23T05:05:52;95039.06;;;6.96;100.00
55424;BME280;41294;42.666;23.350;2023-03-23T05:08:23;95044.38;;;7.09;100.00
55424;BME280;41294;42.666;23.350;2023-03-23T05:10:57;95047.63;;;7.13;100.00
55424;BME280;41294;42.666;23.350;2023-03-23T05:13:23;95053.03;;;7.06;100.00
55424;BME280;41294;42.666;23.350;2023-03-23T05:15:49;95054.09;;;7.08;100.00
55424;BME280;41294;42.666;23.350;2023-03-23T05:18:15;95048.38;;;7.13;100.00
55424;BME280;41294;42.666;23.350;2023-03-23T05:20:41;95048.66;;;7.31;100.00
55424;BME280;41294;42.666;23.350;2023-03-23T05:23:08;95047.97;;;7.43;100.00
55424;BME280;41294;42.666;23.350;2023-03-23T05:25:35;95052.19;;;7.53;100.00
55424;BME280;41294;42.666;23.350;2023-03-23T05:28:05;95054.84;;;7.65;100.00
55424;BME280;41294;42.666;23.350;2023-03-23T05:30:31;95061.97;;;7.65;100.00
55424;BME280;41294;42.666;23.350;2023-03-23T05:32:56;95057.88;;;7.64;100.00
55424;BME280;41294;42.666;23.350;2023-03-23T05:35:22;95066.00;;;7.82;100.00
55424;BME280;41294;42.666;23.350;2023-03-23T05:37:48;95065.34;;;7.78;100.00
55424;BME280;41294;42.666;23.350;2023-03-23T05:40:13;95066.47;;;7.93;100.00
55424;BME280;41294;42.666;23.350;2023-03-23T05:42:40;95071.88;;;7.86;100.00
55424;BME280;41294;42.666;23.350;2023-03-23T05:45:10;95083.81;;;7.87;100.00
55424;BME280;41294;42.666;23.350;2023-03-23T05:47:39;95064.91;;;8.08;100.00
55424;BME280;41294;42.666;23.350;2023-03-23T05:50:15;95078.13;;;8.04;100.00
55424;BME280;41294;42.666;23.350;2023-03-23T05:52:41;95081.31;;;8.24;100.00
55424;BME280;41294;42.666;23.350;2023-03-23T05:55:07;95085.31;;;8.41;100.00
55424;BME280;41294;42.666;23.350;2023-03-23T05:57:33;95088.06;;;8.50;100.00
55424;BME280;41294;42.666;23.350;2023-03-23T05:59:58;95084.19;;;8.54;100.00
55424;BME280;41294;42.666;23.350;2023-03-23T06:02:25;95086.38;;;8.68;100.00
55424;BME280;41294;42.666;23.350;2023-03-23T06:04:53;95094.97;;;8.94;100.00
55424;BME280;41294;42.666;23.350;2023-03-23T06:07:23;95085.44;;;9.55;100.00
55424;BME280;41294;42.666;23.350;2023-03-23T06:09:50;95089.78;;;10.34;97.96
55424;BME280;41294;42.666;23.350;2023-03-23T06:12:16;95081.22;;;10.12;97.25
55424;BME280;41294;42.666;23.350;2023-03-23T06:14:48;95076.47;;;10.07;97.71
55424;BME280;41294;42.666;23.350;2023-03-23T06:17:17;95089.19;;;10.30;95.44
55424;BME280;41294;42.666;23.350;2023-03-23T06:19:43;95086.53;;;10.00;95.86
55424;BME280;41294;42.666;23.350;2023-03-23T06:22:10;95096.25;;;10.12;96.70
55424;BME280;41294;42.666;23.350;2023-03-23T06:24:36;95093.56;;;10.03;94.81
55424;BME280;41294;42.666;23.350;2023-03-23T06:27:02;95085.50;;;9.85;95.50
55424;BME280;41294;42.666;23.350;2023-03-23T06:29:29;95090.31;;;9.44;97.95
55424;BME280;41294;42.666;23.350;2023-03-23T06:32:00;95082.16;;;9.84;96.56
55424;BME280;41294;42.666;23.350;2023-03-23T06:34:26;95081.44;;;10.05;97.16
55424;BME280;41294;42.666;23.350;2023-03-23T06:36:51;95093.66;;;10.51;95.46
55424;BME280;41294;42.666;23.350;2023-03-23T06:39:17;95087.50;;;11.68;90.75
55424;BME280;41294;42.666;23.350;2023-03-23T06:41:43;95087.19;;;12.02;85.07
55424;BME280;41294;42.666;23.350;2023-03-23T06:44:08;95074.44;;;12.51;83.53
55424;BME280;41294;42.666;23.350;2023-03-23T06:46:39;95094.31;;;13.11;79.99
55424;BME280;41294;42.666;23.350;2023-03-23T06:49:05;95093.53;;;13.19;79.54
55424;BME280;41294;42.666;23.350;2023-03-23T06:51:31;95095.41;;;14.03;75.71
55424;BME280;41294;42.666;23.350;2023-03-23T06:53:57;95098.44;;;13.35;76.56
55424;BME280;41294;42.666;23.350;2023-03-23T06:56:23;95097.50;;;13.38;75.48
55424;BME280;41294;42.666;23.350;2023-03-23T06:58:49;95101.47;;;12.46;78.18
55424;BME280;41294;42.666;23.350;2023-03-23T07:01:14;95110.25;;;13.25;77.37
55424;BME280;41294;42.666;23.350;2023-03-23T07:03:41;95098.19;;;15.01;72.10
55424;BME280;41294;42.666;23.350;2023-03-23T07:06:07;95106.41;;;15.97;66.29
55424;BME280;41294;42.666;23.350;2023-03-23T07:08:33;95100.13;;;15.74;64.96
55424;BME280;41294;42.666;23.350;2023-03-23T07:10:58;95110.38;;;14.78;67.84
55424;BME280;41294;42.666;23.350;2023-03-23T07:13:24;95107.19;;;14.89;69.16
55424;BME280;41294;42.666;23.350;2023-03-23T07:15:50;95091.31;;;14.60;67.33
55424;BME280;41294;42.666;23.350;2023-03-23T07:18:15;95107.38;;;13.99;70.61
55424;BME280;41294;42.666;23.350;2023-03-23T07:20:42;95102.16;;;15.25;67.45
55424;BME280;41294;42.666;23.350;2023-03-23T07:23:08;95095.78;;;16.48;62.88
55424;BME280;41294;42.666;23.350;2023-03-23T07:25:35;95098.66;;;16.69;61.96
55424;BME280;41294;42.666;23.350;2023-03-23T07:28:01;95097.28;;;16.79;61.00
55424;BME280;41294;42.666;23.350;2023-03-23T07:30:28;95103.25;;;15.53;63.30
55424;BME280;41294;42.666;23.350;2023-03-23T07:32:57;95099.25;;;16.53;62.88
55424;BME280;41294;42.666;23.350;2023-03-23T07:35:24;95103.84;;;15.43;64.00
55424;BME280;41294;42.666;23.350;2023-03-23T07:37:51;95103.34;;;15.84;64.86
55424;BME280;41294;42.666;23.350;2023-03-23T07:40:17;95101.31;;;16.69;61.08
55424;BME280;41294;42.666;23.350;2023-03-23T07:42:45;95111.41;;;16.15;63.36
55424;BME280;41294;42.666;23.350;2023-03-23T07:45:13;95112.84;;;15.90;63.33
55424;BME280;41294;42.666;23.350;2023-03-23T07:47:39;95115.47;;;13.95;71.13
55424;BME280;41294;42.666;23.350;2023-03-23T07:50:07;95104.38;;;15.12;67.09
55424;BME280;41294;42.666;23.350;2023-03-23T07:52:36;95108.28;;;15.71;65.28
55424;BME280;41294;42.666;23.350;2023-03-23T07:55:02;95122.09;;;17.38;59.67
55424;BME280;41294;42.666;23.350;2023-03-23T07:57:29;95115.81;;;17.41;59.65
55424;BME280;41294;42.666;23.350;2023-03-23T07:59:56;95111.78;;;16.28;60.40
55424;BME280;41294;42.666;23.350;2023-03-23T08:02:22;95109.06;;;14.69;65.99
55424;BME280;41294;42.666;23.350;2023-03-23T08:07:23;95113.69;;;16.02;64.46
55424;BME280;41294;42.666;23.350;2023-03-23T08:09:48;95113.28;;;16.90;59.55
55424;BME280;41294;42.666;23.350;2023-03-23T08:12:14;95120.56;;;14.51;67.31
55424;BME280;41294;42.666;23.350;2023-03-23T08:14:39;95119.28;;;15.24;65.74
55424;BME280;41294;42.666;23.350;2023-03-23T08:17:08;95113.59;;;15.71;64.57
55424;BME280;41294;42.666;23.350;2023-03-23T08:19:35;95114.31;;;15.17;64.37
55424;BME280;41294;42.666;23.350;2023-03-23T08:22:05;95120.63;;;14.85;66.27
55424;BME280;41294;42.666;23.350;2023-03-23T08:24:32;95110.28;;;16.47;60.50
55424;BME280;41294;42.666;23.350;2023-03-23T08:26:58;95115.75;;;17.83;55.86
55424;BME280;41294;42.666;23.350;2023-03-23T08:29:28;95110.09;;;17.59;55.47
55424;BME280;41294;42.666;23.350;2023-03-23T08:31:54;95113.00;;;18.35;52.55
55424;BME280;41294;42.666;23.350;2023-03-23T08:34:20;95113.81;;;17.83;52.61
55424;BME280;41294;42.666;23.350;2023-03-23T08:36:45;95104.91;;;18.08;54.64
55424;BME280;41294;42.666;23.350;2023-03-23T08:39:11;95107.22;;;18.97;51.39
55424;BME280;41294;42.666;23.350;2023-03-23T08:41:37;95097.97;;;19.93;48.02
55424;BME280;41294;42.666;23.350;2023-03-23T08:44:03;95106.72;;;19.93;47.28
55424;BME280;41294;42.666;23.350;2023-03-23T08:46:30;95099.34;;;19.54;44.24
55424;BME280;41294;42.666;23.350;2023-03-23T08:48:55;95105.97;;;19.31;48.14
55424;BME280;41294;42.666;23.350;2023-03-23T08:51:21;95099.50;;;19.78;46.39
55424;BME280;41294;42.666;23.350;2023-03-23T08:53:47;95106.97;;;18.51;45.80
55424;BME280;41294;42.666;23.350;2023-03-23T08:56:12;95099.06;;;17.35;47.19
55424;BME280;41294;42.666;23.350;2023-03-23T08:58:39;95096.53;;;17.57;47.05
55424;BME280;41294;42.666;23.350;2023-03-23T09:01:06;95097.53;;;18.78;44.19
55424;BME280;41294;42.666;23.350;2023-03-23T09:03:33;95097.03;;;18.57;45.12
55424;BME280;41294;42.666;23.350;2023-03-23T09:06:05;95091.44;;;19.10;44.16
55424;BME280;41294;42.666;23.350;2023-03-23T09:08:32;95094.31;;;19.34;43.43
55424;BME280;41294;42.666;23.350;2023-03-23T09:10:59;95098.38;;;19.46;44.15
55424;BME280;41294;42.666;23.350;2023-03-23T09:13:24;95098.03;;;19.77;43.08
55424;BME280;41294;42.666;23.350;2023-03-23T09:15:50;95095.16;;;17.83;46.09
55424;BME280;41294;42.666;23.350;2023-03-23T09:18:16;95091.94;;;18.59;44.89
55424;BME280;41294;42.666;23.350;2023-03-23T09:20:43;95107.03;;;17.88;44.93
55424;BME280;41294;42.666;23.350;2023-03-23T09:23:08;95095.19;;;14.93;52.02
55424;BME280;41294;42.666;23.350;2023-03-23T09:25:34;95102.88;;;14.91;53.28
55424;BME280;41294;42.666;23.350;2023-03-23T09:28:00;95093.88;;;14.69;54.86
55424;BME280;41294;42.666;23.350;2023-03-23T09:30:30;95095.44;;;15.89;53.32
55424;BME280;41294;42.666;23.350;2023-03-23T09:32:59;95090.69;;;17.53;49.52
55424;BME280;41294;42.666;23.350;2023-03-23T09:35:27;95082.72;;;18.27;47.39
55424;BME280;41294;42.666;23.350;2023-03-23T09:37:53;95087.50;;;18.18;47.31
55424;BME280;41294;42.666;23.350;2023-03-23T09:40:26;95079.97;;;16.33;50.53
55424;BME280;41294;42.666;23.350;2023-03-23T09:43:58;95080.94;;;15.25;54.00
55424;BME280;41294;42.666;23.350;2023-03-23T09:46:35;95084.44;;;15.17;55.00
55424;BME280;41294;42.666;23.350;2023-03-23T09:49:11;95086.00;;;15.43;53.52
55424;BME280;41294;42.666;23.350;2023-03-23T09:51:51;95083.94;;;13.69;58.46
55424;BME280;41294;42.666;23.350;2023-03-23T09:54:26;95078.53;;;14.73;57.57
55424;BME280;41294;42.666;23.350;2023-03-23T09:56:53;95074.78;;;14.65;54.14
55424;BME280;41294;42.666;23.350;2023-03-23T09:59:40;95080.22;;;14.90;53.22
55424;BME280;41294;42.666;23.350;2023-03-23T10:04:44;95068.69;;;16.18;49.60
55424;BME280;41294;42.666;23.350;2023-03-23T10:07:18;95072.25;;;16.60;49.47
55424;BME280;41294;42.666;23.350;2023-03-23T10:09:51;95080.25;;;15.90;50.96
55424;BME280;41294;42.666;23.350;2023-03-23T10:15:11;95067.63;;;17.33;48.12
55424;BME280;41294;42.666;23.350;2023-03-23T10:17:56;95061.25;;;17.73;47.80
55424;BME280;41294;42.666;23.350;2023-03-23T10:26:00;95061.38;;;18.82;44.94
55424;BME280;41294;42.666;23.350;2023-03-23T10:31:03;95059.00;;;17.55;47.62
55424;BME280;41294;42.666;23.350;2023-03-23T10:33:36;95050.75;;;17.06;47.98
55424;BME280;41294;42.666;23.350;2023-03-23T10:39:02;95050.47;;;16.98;48.33
55424;BME280;41294;42.666;23.350;2023-03-23T10:41:30;95056.44;;;17.24;47.57
55424;BME280;41294;42.666;23.350;2023-03-23T10:43:56;95055.47;;;17.27;46.82
55424;BME280;41294;42.666;23.350;2023-03-23T10:48:48;95041.72;;;18.96;44.54
55424;BME280;41294;42.666;23.350;2023-03-23T10:51:19;95040.31;;;19.57;42.92
55424;BME280;41294;42.666;23.350;2023-03-23T10:53:50;95044.09;;;19.78;41.77
55424;BME280;41294;42.666;23.350;2023-03-23T10:56:28;95048.06;;;18.60;44.58
55424;BME280;41294;42.666;23.350;2023-03-23T10:58:54;95044.00;;;17.57;47.03
55424;BME280;41294;42.666;23.350;2023-03-23T11:01:30;95046.78;;;15.98;50.20
55424;BME280;41294;42.666;23.350;2023-03-23T11:03:57;95061.13;;;15.61;51.03
55424;BME280;41294;42.666;23.350;2023-03-23T11:06:26;95044.25;;;15.04;52.94
55424;BME280;41294;42.666;23.350;2023-03-23T11:09:00;95043.91;;;16.27;50.48
55424;BME280;41294;42.666;23.350;2023-03-23T11:11:29;95039.63;;;17.49;47.35
55424;BME280;41294;42.666;23.350;2023-03-23T11:14:02;95043.47;;;18.44;44.42
55424;BME280;41294;42.666;23.350;2023-03-23T11:16:43;95032.22;;;19.17;43.07
55424;BME280;41294;42.666;23.350;2023-03-23T11:19:14;95037.22;;;17.56;45.60
55424;BME280;41294;42.666;23.350;2023-03-23T11:21:47;95023.81;;;15.95;49.80
55424;BME280;41294;42.666;23.350;2023-03-23T11:24:13;95026.88;;;16.39;49.42
55424;BME280;41294;42.666;23.350;2023-03-23T11:26:43;95017.69;;;17.18;48.71
55424;BME280;41294;42.666;23.350;2023-03-23T11:29:35;95022.75;;;17.16;48.22
55424;BME280;41294;42.666;23.350;2023-03-23T11:34:40;95012.38;;;17.76;46.83
55424;BME280;41294;42.666;23.350;2023-03-23T11:40:13;95005.22;;;16.87;47.17
55424;BME280;41294;42.666;23.350;2023-03-23T11:45:39;94989.13;;;18.69;44.57
55424;BME280;41294;42.666;23.350;2023-03-23T11:48:26;94998.53;;;18.92;43.79
55424;BME280;41294;42.666;23.350;2023-03-23T11:50:57;94991.84;;;18.42;43.85
55424;BME280;41294;42.666;23.350;2023-03-23T11:56:33;94990.72;;;17.41;45.86
55424;BME280;41294;42.666;23.350;2023-03-23T11:58:59;94983.84;;;18.25;45.85
55424;BME280;41294;42.666;23.350;2023-03-23T12:01:51;94987.16;;;17.02;46.72
55424;BME280;41294;42.666;23.350;2023-03-23T12:26:52;94976.53;;;16.60;48.84
55424;BME280;41294;42.666;23.350;2023-03-23T12:29:27;94974.94;;;16.38;48.93
55424;BME280;41294;42.666;23.350;2023-03-23T12:35:44;94970.63;;;17.34;46.68
55424;BME280;41294;42.666;23.350;2023-03-23T12:46:12;94968.19;;;17.31;46.46
55424;BME280;41294;42.666;23.350;2023-03-23T12:48:41;94970.84;;;17.31;47.08
55424;BME280;41294;42.666;23.350;2023-03-23T12:51:22;94957.47;;;17.15;47.17
55424;BME280;41294;42.666;23.350;2023-03-23T12:56:54;94943.41;;;16.25;48.74
55424;BME280;41294;42.666;23.350;2023-03-23T12:59:45;94948.34;;;16.38;49.06
55424;BME280;41294;42.666;23.350;2023-03-23T13:02:29;94948.13;;;16.36;48.87
55424;BME280;41294;42.666;23.350;2023-03-23T13:08:04;94945.31;;;16.97;48.33
55424;BME280;41294;42.666;23.350;2023-03-23T13:10:36;94944.63;;;16.55;49.58
55424;BME280;41294;42.666;23.350;2023-03-23T13:13:19;94940.34;;;16.32;49.72
55424;BME280;41294;42.666;23.350;2023-03-23T13:16:14;94947.13;;;16.69;49.66
55424;BME280;41294;42.666;23.350;2023-03-23T13:18:53;94947.56;;;17.26;47.94
55424;BME280;41294;42.666;23.350;2023-03-23T13:23:53;94936.81;;;17.84;46.37
55424;BME280;41294;42.666;23.350;2023-03-23T13:26:22;94932.47;;;17.92;46.85
55424;BME280;41294;42.666;23.350;2023-03-23T13:29:05;94940.31;;;17.21;48.16
55424;BME280;41294;42.666;23.350;2023-03-23T13:31:38;94932.41;;;17.32;48.15
55424;BME280;41294;42.666;23.350;2023-03-23T13:34:29;94936.09;;;16.98;48.56
55424;BME280;41294;42.666;23.350;2023-03-23T13:39:31;94932.91;;;16.83;49.36
55424;BME280;41294;42.666;23.350;2023-03-23T13:45:19;94922.00;;;17.29;48.21
55424;BME280;41294;42.666;23.350;2023-03-23T13:47:46;94919.72;;;17.11;48.35
55424;BME280;41294;42.666;23.350;2023-03-23T13:50:42;94919.44;;;16.98;48.52
55424;BME280;41294;42.666;23.350;2023-03-23T13:53:22;94922.31;;;16.42;50.36
55424;BME280;41294;42.666;23.350;2023-03-23T13:55:51;94918.31;;;16.62;50.22
55424;BME280;41294;42.666;23.350;2023-03-23T13:58:25;94919.16;;;16.43;50.91
55424;BME280;41294;42.666;23.350;2023-03-23T14:01:16;94916.28;;;15.79;52.11
55424;BME280;41294;42.666;23.350;2023-03-23T14:03:46;94920.28;;;15.64;52.15
55424;BME280;41294;42.666;23.350;2023-03-23T14:06:18;94905.22;;;15.81;52.16
55424;BME280;41294;42.666;23.350;2023-03-23T14:08:49;94907.06;;;15.69;52.17
55424;BME280;41294;42.666;23.350;2023-03-23T14:11:21;94908.16;;;16.25;51.32
55424;BME280;41294;42.666;23.350;2023-03-23T14:16:20;94905.41;;;16.92;49.76
55424;BME280;41294;42.666;23.350;2023-03-23T14:18:59;94900.97;;;16.78;49.45
55424;BME280;41294;42.666;23.350;2023-03-23T14:24:25;94894.00;;;16.86;48.48
55424;BME280;41294;42.666;23.350;2023-03-23T14:26:52;94897.69;;;17.05;48.38
55424;BME280;41294;42.666;23.350;2023-03-23T14:29:20;94893.44;;;16.65;49.62
55424;BME280;41294;42.666;23.350;2023-03-23T14:31:55;94890.72;;;16.54;50.70
55424;BME280;41294;42.666;23.350;2023-03-23T14:34:22;94898.69;;;16.49;51.09
55424;BME280;41294;42.666;23.350;2023-03-23T14:36:49;94892.03;;;16.75;50.68
55424;BME280;41294;42.666;23.350;2023-03-23T14:39:20;94894.44;;;16.73;50.46
55424;BME280;41294;42.666;23.350;2023-03-23T14:41:46;94900.47;;;16.27;50.32
55424;BME280;41294;42.666;23.350;2023-03-23T14:44:21;94891.03;;;16.26;50.33
55424;BME280;41294;42.666;23.350;2023-03-23T14:46:47;94897.81;;;15.96;52.28
55424;BME280;41294;42.666;23.350;2023-03-23T14:49:16;94898.22;;;15.83;53.00
55424;BME280;41294;42.666;23.350;2023-03-23T14:51:50;94896.19;;;16.04;52.27